Time;durP1;ratioP1;P1;durP2;ratioP2;P2;SDS_P1;SDS_P2;PMS_P1;PMS_P2;Temp;Humidity;BMP_temperature;BMP_pressure;BME280_temperature;BME280_humidity;BME280_pressure;Samples;Min_cycle;Max_cycle;Signal;HPM_P1;HPM_P2
2023/04/06 00:00:27;;;;;;;5.18;4.78;;;8.60;86.90;;;;;;5091973;28;20284;-77
2023/04/06 00:02:54;;;;;;;8.13;5.15;;;8.60;87.10;;;;;;5092196;28;20227;-78
2023/04/06 00:05:22;;;;;;;5.78;5.28;;;8.60;87.20;;;;;;5092791;28;20227;-77
2023/04/06 00:10:39;;;;;;;7.53;5.25;;;8.60;87.00;;;;;;5016974;28;20226;-77
2023/04/06 00:13:06;;;;;;;6.70;5.22;;;8.50;86.80;;;;;;5093854;28;20318;-78
2023/04/06 00:15:36;;;;;;;7.05;5.38;;;8.50;86.80;;;;;;5092735;28;20227;-77
2023/04/06 00:18:03;;;;;;;5.53;5.00;;;8.50;86.80;;;;;;5093501;28;20230;-76
2023/04/06 00:20:32;;;;;;;7.13;5.38;;;8.50;86.70;;;;;;5092501;28;20227;-77
2023/04/06 00:22:59;;;;;;;6.05;5.45;;;8.50;87.10;;;;;;5093739;28;20229;-77
2023/04/06 00:25:27;;;;;;;4.65;4.10;;;8.40;86.80;;;;;;5093664;28;20223;-78
2023/04/06 00:27:54;;;;;;;7.30;5.20;;;8.40;86.70;;;;;;5092714;28;20223;-78
2023/04/06 00:30:22;;;;;;;6.00;5.40;;;8.40;86.80;;;;;;5093591;28;20223;-77
2023/04/06 00:32:51;;;;;;;5.50;4.97;;;8.40;86.90;;;;;;5092704;28;20223;-77
2023/04/06 00:35:18;;;;;;;4.85;4.40;;;8.40;86.90;;;;;;5089054;28;20224;-77
2023/04/06 00:37:48;;;;;;;5.40;5.00;;;8.40;87.10;;;;;;5071685;28;20240;-77
2023/04/06 00:40:15;;;;;;;6.28;4.57;;;8.40;87.10;;;;;;5071546;28;20236;-76
2023/04/06 00:42:45;;;;;;;6.25;5.65;;;8.40;87.10;;;;;;5071766;28;20234;-77
2023/04/06 00:45:12;;;;;;;7.72;4.50;;;8.40;87.10;;;;;;5071950;28;20219;-77
2023/04/06 00:47:39;;;;;;;5.22;4.70;;;8.40;87.30;;;;;;5071554;28;20250;-76
2023/04/06 00:50:09;;;;;;;5.22;4.70;;;8.40;87.40;;;;;;5072389;28;20247;-77
2023/04/06 00:52:37;;;;;;;8.57;5.50;;;8.30;87.50;;;;;;5073051;28;20223;-76
2023/04/06 00:55:04;;;;;;;5.35;4.88;;;8.40;87.50;;;;;;5076588;28;20719;-77
2023/04/06 00:57:32;;;;;;;5.60;5.10;;;8.30;87.60;;;;;;5076474;28;20240;-76
2023/04/06 00:59:59;;;;;;;4.82;4.32;;;8.30;87.20;;;;;;5075605;28;20227;-77
2023/04/06 01:02:27;;;;;;;6.20;5.05;;;8.30;87.00;;;;;;5075690;28;20331;-77
2023/04/06 01:04:55;;;;;;;8.63;6.72;;;8.30;87.30;;;;;;5075574;28;20242;-77
2023/04/06 01:07:24;;;;;;;7.35;6.07;;;8.20;87.40;;;;;;5076145;28;20227;-76
2023/04/06 01:09:51;;;;;;;6.93;6.22;;;8.20;87.30;;;;;;5075103;28;20224;-77
2023/04/06 01:12:21;;;;;;;7.28;6.28;;;8.20;87.30;;;;;;5086133;28;20706;-78
2023/04/06 01:14:49;;;;;;;5.35;4.55;;;8.30;87.30;;;;;;5095669;28;20314;-77
2023/04/06 01:17:16;;;;;;;5.80;4.75;;;8.30;87.10;;;;;;5096056;28;20219;-77
2023/04/06 01:19:44;;;;;;;5.50;5.03;;;8.30;86.90;;;;;;5095260;28;20238;-77
2023/04/06 01:22:17;;;;;;;6.13;4.30;;;8.30;87.10;;;;;;5096178;28;20545;-77
2023/04/06 01:24:44;;;;;;;5.70;4.75;;;8.30;87.20;;;;;;5095246;28;20228;-76
2023/04/06 01:27:12;;;;;;;6.07;5.45;;;8.20;87.00;;;;;;5095871;28;20306;-78
2023/04/06 01:29:40;;;;;;;5.35;4.55;;;8.20;87.10;;;;;;5094637;28;20227;-77
2023/04/06 01:32:08;;;;;;;4.82;4.25;;;8.20;87.00;;;;;;5095986;28;20243;-77
2023/04/06 01:34:35;;;;;;;5.20;4.45;;;8.20;87.20;;;;;;5095644;28;20227;-78
2023/04/06 01:37:02;;;;;;;4.72;4.32;;;8.20;86.90;;;;;;5095061;28;20280;-77
2023/04/06 01:39:31;;;;;;;4.93;4.45;;;8.20;87.00;;;;;;5095407;28;20231;-77
2023/04/06 01:42:00;;;;;;;5.10;4.40;;;8.20;87.20;;;;;;5094719;28;20360;-78
2023/04/06 01:44:30;;;;;;;4.40;4.00;;;8.20;87.10;;;;;;5095331;28;20296;-77
2023/04/06 01:46:57;;;;;;;7.97;5.10;;;8.20;87.30;;;;;;5094908;28;20228;-77
2023/04/06 01:49:24;;;;;;;4.63;4.03;;;8.20;87.40;;;;;;5095424;28;20657;-76
2023/04/06 01:51:52;;;;;;;6.40;4.25;;;8.20;87.10;;;;;;5094895;28;20227;-77
2023/04/06 01:54:21;;;;;;;5.47;4.72;;;8.10;87.00;;;;;;5095219;28;20310;-77
2023/04/06 01:59:35;;;;;;;5.28;4.57;;;8.20;87.60;;;;;;5050646;28;20239;-78
2023/04/06 02:02:01;;;;;;;4.47;4.07;;;8.00;87.60;;;;;;5094611;28;20561;-77
2023/04/06 02:04:28;;;;;;;4.80;4.40;;;8.00;87.70;;;;;;5094503;28;20243;-77
2023/04/06 02:06:55;;;;;;;8.15;4.50;;;8.00;87.70;;;;;;5094473;28;20681;-77
2023/04/06 02:09:23;;;;;;;5.63;5.00;;;8.00;87.90;;;;;;5095430;28;20694;-77
2023/04/06 02:11:51;;;;;;;6.13;4.82;;;8.00;88.20;;;;;;5095356;28;20218;-78
2023/04/06 02:14:18;;;;;;;5.15;4.65;;;8.00;88.10;;;;;;5093274;28;20673;-77
2023/04/06 02:16:48;;;;;;;6.80;5.22;;;8.10;88.10;;;;;;5094655;28;20659;-77
2023/04/06 02:19:15;;;;;;;6.35;4.55;;;8.10;88.00;;;;;;5095065;28;20243;-76
2023/04/06 02:21:43;;;;;;;7.40;4.97;;;8.10;88.10;;;;;;5095040;28;20255;-77
2023/04/06 02:24:10;;;;;;;5.78;4.72;;;8.00;88.30;;;;;;5095085;28;20219;-77
2023/04/06 02:26:37;;;;;;;6.43;4.68;;;8.00;88.50;;;;;;5095127;28;20238;-77
2023/04/06 02:29:07;;;;;;;5.95;4.88;;;8.00;88.40;;;;;;5094198;28;20239;-77
2023/04/06 02:31:35;;;;;;;4.82;4.43;;;8.00;88.40;;;;;;5074501;28;20242;-77
2023/04/06 02:34:02;;;;;;;5.32;4.40;;;8.00;88.40;;;;;;5093428;28;20215;-77
2023/04/06 02:36:29;;;;;;;7.13;5.43;;;8.00;88.40;;;;;;5094471;28;20230;-77
2023/04/06 02:38:56;;;;;;;6.30;4.85;;;8.00;88.40;;;;;;5094069;28;20215;-77
2023/04/06 02:41:27;;;;;;;5.43;4.47;;;8.00;88.40;;;;;;5094507;28;20786;-78
2023/04/06 02:43:54;;;;;;;6.32;5.72;;;8.00;88.30;;;;;;5094405;28;20223;-77
2023/04/06 02:46:25;;;;;;;7.53;4.70;;;8.00;88.50;;;;;;5094563;28;20600;-77
2023/04/06 02:48:52;;;;;;;4.57;4.18;;;8.00;88.50;;;;;;5094290;28;20276;-77
2023/04/06 02:51:21;;;;;;;5.15;4.72;;;7.90;88.60;;;;;;5083841;28;20637;-77
2023/04/06 02:53:49;;;;;;;6.05;5.45;;;7.90;88.80;;;;;;5093541;28;20284;-76
2023/04/06 02:56:16;;;;;;;8.05;4.70;;;7.90;89.30;;;;;;5094321;28;20590;-77
2023/04/06 02:58:43;;;;;;;6.28;4.72;;;7.90;89.20;;;;;;5093914;28;20235;-77
2023/04/06 03:01:11;;;;;;;5.85;5.22;;;7.80;89.30;;;;;;5094273;28;20564;-77
2023/04/06 03:03:39;;;;;;;6.43;5.20;;;7.80;89.40;;;;;;5094202;28;20280;-77
2023/04/06 03:06:12;;;;;;;4.95;4.55;;;7.80;89.30;;;;;;5093385;28;20224;-77
2023/04/06 03:08:39;;;;;;;7.32;4.63;;;7.80;89.50;;;;;;5093908;28;20227;-76
2023/04/06 03:11:06;;;;;;;5.80;4.10;;;7.80;89.40;;;;;;5094068;28;20596;-77
2023/04/06 03:13:33;;;;;;;7.07;5.10;;;7.80;89.30;;;;;;5094643;28;20277;-78
2023/04/06 03:16:00;;;;;;;5.80;4.60;;;7.70;89.20;;;;;;5094614;28;20699;-77
2023/04/06 03:18:28;;;;;;;5.53;4.47;;;7.70;89.20;;;;;;5094472;28;20318;-77
2023/04/06 03:21:00;;;;;;;5.05;4.55;;;7.70;89.40;;;;;;5093434;28;20234;-77
2023/04/06 03:23:26;;;;;;;7.82;4.90;;;7.70;89.50;;;;;;5094512;28;20648;-77
2023/04/06 03:25:55;;;;;;;4.35;4.05;;;7.60;89.40;;;;;;5093977;28;20588;-77
2023/04/06 03:28:22;;;;;;;5.30;4.57;;;7.60;89.20;;;;;;5093649;28;20292;-78
2023/04/06 03:30:50;;;;;;;5.72;5.10;;;7.60;89.20;;;;;;5094175;28;20222;-76
2023/04/06 03:33:20;;;;;;;6.00;5.40;;;7.60;89.10;;;;;;5082719;28;20249;-77
2023/04/06 03:35:47;;;;;;;6.90;5.20;;;7.50;89.20;;;;;;5093593;28;20307;-77
2023/04/06 03:38:16;;;;;;;5.68;4.70;;;7.50;89.10;;;;;;5093338;28;20235;-77
2023/04/06 03:40:46;;;;;;;6.45;4.60;;;7.50;89.20;;;;;;5093945;28;20215;-77
2023/04/06 03:43:13;;;;;;;12.40;7.78;;;7.40;89.20;;;;;;5092590;28;20255;-77
2023/04/06 03:45:40;;;;;;;8.25;7.45;;;7.40;89.50;;;;;;5092974;28;20231;-76
2023/04/06 03:48:16;;;;;;;13.40;8.63;;;7.40;89.70;;;;;;5093521;28;20253;-77
2023/04/06 03:50:43;;;;;;;10.38;9.32;;;7.30;90.00;;;;;;5093958;28;20244;-76
2023/04/06 03:53:10;;;;;;;11.93;7.72;;;7.30;90.00;;;;;;5092966;28;20219;-77
2023/04/06 03:55:38;;;;;;;9.02;7.30;;;7.30;90.20;;;;;;5093833;28;20247;-76
2023/04/06 03:58:05;;;;;;;8.82;7.90;;;7.20;90.50;;;;;;5093024;28;20291;-77
2023/04/06 04:00:32;;;;;;;10.02;7.50;;;7.20;90.30;;;;;;5093560;28;20234;-77
2023/04/06 04:03:00;;;;;;;11.38;6.60;;;7.20;90.30;;;;;;5092985;28;20224;-77
2023/04/06 04:05:27;;;;;;;7.78;6.93;;;7.20;90.40;;;;;;5093224;28;20245;-77
2023/04/06 04:07:55;;;;;;;8.13;5.88;;;7.20;90.40;;;;;;5092764;28;20302;-77
2023/04/06 04:10:21;;;;;;;7.22;6.53;;;7.20;90.50;;;;;;5091008;28;20254;-77
2023/04/06 04:12:50;;;;;;;8.23;6.20;;;7.20;90.50;;;;;;5092756;28;20280;-77
2023/04/06 04:15:17;;;;;;;8.13;6.10;;;7.10;90.40;;;;;;5092485;28;20215;-77
2023/04/06 04:17:46;;;;;;;9.40;5.28;;;7.10;90.40;;;;;;5092527;28;20215;-77
2023/04/06 04:20:13;;;;;;;6.32;5.72;;;7.10;90.40;;;;;;5093391;28;20227;-78
2023/04/06 04:22:44;;;;;;;9.93;7.10;;;7.10;90.50;;;;;;5092745;28;20228;-77
2023/04/06 04:25:11;;;;;;;12.30;11.00;;;7.10;90.60;;;;;;5092537;28;20319;-78
2023/04/06 04:27:38;;;;;;;12.88;10.40;;;7.00;90.60;;;;;;5091871;28;20276;-78
2023/04/06 04:30:07;;;;;;;9.60;8.70;;;7.00;90.70;;;;;;5092605;28;20227;-77
2023/04/06 04:32:35;;;;;;;8.77;7.93;;;7.00;90.70;;;;;;5092907;28;20223;-77
2023/04/06 04:35:02;;;;;;;7.45;6.75;;;7.00;90.80;;;;;;5091927;28;20247;-77
2023/04/06 04:37:34;;;;;;;8.80;7.57;;;7.00;90.90;;;;;;5095951;28;20358;-77
2023/04/06 04:40:01;;;;;;;8.70;7.40;;;7.00;90.90;;;;;;5092430;28;20536;-77
2023/04/06 04:42:46;;;;;;;11.20;8.05;;;7.00;91.00;;;;;;5094259;28;20254;-77
2023/04/06 04:45:15;;;;;;;9.05;7.13;;;7.00;90.90;;;;;;5093347;28;20227;-77
2023/04/06 04:47:41;;;;;;;11.23;7.25;;;6.90;91.00;;;;;;5092716;28;20215;-77
2023/04/06 04:50:09;;;;;;;11.07;8.45;;;6.90;91.00;;;;;;5092020;28;20215;-77
2023/04/06 04:52:36;;;;;;;10.60;7.65;;;6.90;91.10;;;;;;5092422;28;20219;-78
2023/04/06 04:55:03;;;;;;;12.40;11.20;;;6.90;91.20;;;;;;5091492;28;20607;-77
2023/04/06 04:57:30;;;;;;;15.00;13.55;;;6.90;91.20;;;;;;5082714;28;20521;-77
2023/04/06 04:59:57;;;;;;;20.60;14.05;;;6.90;91.30;;;;;;5091768;28;20235;-76
2023/04/06 05:02:26;;;;;;;17.88;11.50;;;6.90;91.60;;;;;;5091932;28;20238;-77
2023/04/06 05:04:53;;;;;;;14.15;12.07;;;6.90;91.60;;;;;;5091640;28;20223;-77
2023/04/06 05:07:20;;;;;;;12.38;10.55;;;6.90;91.60;;;;;;5092135;28;20227;-77
2023/04/06 05:09:47;;;;;;;11.68;9.70;;;6.90;92.10;;;;;;5091642;28;20243;-77
2023/04/06 05:12:14;;;;;;;12.80;9.70;;;6.90;91.80;;;;;;5091875;28;20223;-77
2023/04/06 05:14:41;;;;;;;17.20;9.70;;;6.90;92.00;;;;;;5091953;28;20223;-77
2023/04/06 05:17:09;;;;;;;10.40;9.35;;;6.90;92.10;;;;;;5092344;28;20239;-77
2023/04/06 05:19:37;;;;;;;11.38;9.82;;;6.90;92.20;;;;;;5091509;28;20322;-77
2023/04/06 05:22:04;;;;;;;11.68;8.63;;;6.90;92.20;;;;;;5091747;28;20223;-77
2023/04/06 05:24:31;;;;;;;11.75;9.55;;;6.90;92.20;;;;;;5092074;28;20249;-77
2023/04/06 05:26:59;;;;;;;9.77;8.70;;;6.90;92.30;;;;;;5091401;28;20235;-77
2023/04/06 05:29:28;;;;;;;9.73;8.73;;;6.90;92.40;;;;;;5091850;28;20224;-77
2023/04/06 05:31:55;;;;;;;11.25;8.85;;;7.00;92.60;;;;;;5091106;28;20238;-77
2023/04/06 05:34:22;;;;;;;10.00;8.30;;;6.90;92.60;;;;;;5092301;28;20227;-77
2023/04/06 05:36:51;;;;;;;12.82;7.78;;;6.90;92.70;;;;;;5091270;28;20223;-77
2023/04/06 05:39:18;;;;;;;12.07;10.02;;;6.90;92.90;;;;;;5092462;28;20231;-77
2023/04/06 05:41:46;;;;;;;9.35;8.55;;;6.90;93.10;;;;;;5095162;28;20235;-77
2023/04/06 05:44:13;;;;;;;10.00;8.27;;;6.90;93.20;;;;;;5094735;28;20277;-77
2023/04/06 05:46:43;;;;;;;8.13;7.43;;;6.90;93.20;;;;;;5095536;28;20219;-77
2023/04/06 05:49:11;;;;;;;9.20;7.22;;;7.00;93.30;;;;;;5095004;28;20286;-77
2023/04/06 05:51:38;;;;;;;9.07;8.05;;;7.00;93.30;;;;;;5095383;28;20242;-77
2023/04/06 05:54:06;;;;;;;7.10;6.40;;;7.00;93.80;;;;;;5094938;28;20262;-77
2023/04/06 05:56:33;;;;;;;8.80;8.00;;;7.00;93.40;;;;;;5094764;28;20215;-77
2023/04/06 05:59:00;;;;;;;9.02;8.15;;;7.10;93.40;;;;;;5094325;28;20223;-77
2023/04/06 06:01:28;;;;;;;9.55;8.65;;;7.10;93.40;;;;;;5094395;28;20277;-77
2023/04/06 06:03:56;;;;;;;7.88;7.13;;;7.10;93.30;;;;;;5094672;28;20703;-77
2023/04/06 06:06:23;;;;;;;9.88;8.88;;;7.20;93.40;;;;;;5094704;28;20226;-77
2023/04/06 06:08:52;;;;;;;10.15;8.77;;;7.20;93.40;;;;;;5094321;28;20223;-77
2023/04/06 06:11:20;;;;;;;11.40;9.00;;;7.30;93.40;;;;;;5094731;28;20321;-77
2023/04/06 06:13:47;;;;;;;10.73;8.60;;;7.30;93.30;;;;;;5094891;28;20223;-77
2023/04/06 06:16:15;;;;;;;8.52;7.65;;;7.30;93.20;;;;;;5094917;28;20710;-77
2023/04/06 06:18:41;;;;;;;9.07;8.27;;;7.40;93.20;;;;;;5094609;28;20231;-77
2023/04/06 06:21:09;;;;;;;11.05;8.52;;;7.40;93.20;;;;;;5094333;28;20223;-77
2023/04/06 06:23:36;;;;;;;11.05;7.38;;;7.40;93.10;;;;;;5095048;28;20234;-77
2023/04/06 06:26:04;;;;;;;8.80;7.90;;;7.50;93.10;;;;;;5094081;28;20227;-77
2023/04/06 06:31:28;;;;;;;8.77;7.97;;;7.50;93.10;;;;;;5032990;28;20667;-77
2023/04/06 06:33:55;;;;;;;9.45;8.32;;;7.60;93.20;;;;;;5078955;28;20263;-77
2023/04/06 06:36:30;;;;;;;9.13;8.15;;;7.60;93.60;;;;;;5084505;28;20277;-77
2023/04/06 06:38:58;;;;;;;9.73;7.80;;;7.70;93.20;;;;;;5082108;28;20296;-77
2023/04/06 06:41:25;;;;;;;11.10;7.53;;;7.70;93.10;;;;;;5084013;28;20219;-77
2023/04/06 06:43:54;;;;;;;13.68;8.73;;;7.80;93.10;;;;;;5092705;28;20302;-77
2023/04/06 06:46:23;;;;;;;8.20;7.40;;;7.80;93.10;;;;;;5093312;28;20224;-77
2023/04/06 06:48:50;;;;;;;9.23;8.20;;;7.90;92.80;;;;;;5093026;28;20231;-78
2023/04/06 06:51:17;;;;;;;9.40;8.57;;;8.00;92.80;;;;;;5093638;28;20551;-77
2023/04/06 06:53:44;;;;;;;8.50;7.25;;;8.00;92.70;;;;;;5092936;28;20235;-77
2023/04/06 06:56:11;;;;;;;8.73;7.22;;;8.10;92.90;;;;;;5093550;28;20223;-77
2023/04/06 06:58:38;;;;;;;15.25;8.45;;;8.20;93.10;;;;;;5093090;28;20227;-77
2023/04/06 07:01:07;;;;;;;9.23;8.18;;;8.20;92.10;;;;;;5093457;28;20668;-77
2023/04/06 07:03:34;;;;;;;7.90;7.10;;;8.20;92.00;;;;;;5092842;28;20337;-77
2023/04/06 07:06:01;;;;;;;8.40;7.28;;;8.30;92.00;;;;;;5080087;28;20650;-77
2023/04/06 07:08:28;;;;;;;8.55;6.90;;;8.40;91.90;;;;;;5073325;28;20220;-76
2023/04/06 07:10:56;;;;;;;9.50;7.65;;;8.40;91.90;;;;;;5072423;28;20224;-78
2023/04/06 07:13:23;;;;;;;12.02;7.30;;;8.50;91.60;;;;;;5091313;28;20215;-77
2023/04/06 07:15:50;;;;;;;8.13;7.25;;;8.60;91.30;;;;;;5093412;28;20253;-77
2023/04/06 07:18:19;;;;;;;8.00;7.22;;;8.60;90.90;;;;;;5093227;28;20696;-77
2023/04/06 07:20:46;;;;;;;7.03;6.40;;;8.70;90.90;;;;;;5093288;28;20223;-76
2023/04/06 07:25:58;;;;;;;6.40;5.72;;;8.90;91.10;;;;;;5093748;28;20225;-77
2023/04/06 07:28:25;;;;;;;7.18;5.90;;;9.00;89.70;;;;;;5094279;28;20633;-77
2023/04/06 07:30:52;;;;;;;11.07;7.47;;;9.10;89.50;;;;;;5092871;28;20239;-77
2023/04/06 07:33:20;;;;;;;6.68;5.93;;;9.10;89.80;;;;;;5083300;28;20297;-77
2023/04/06 07:35:56;;;;;;;8.02;6.32;;;9.20;89.10;;;;;;5093062;28;20674;-77
2023/04/06 07:38:23;;;;;;;5.10;4.45;;;9.30;88.40;;;;;;5093966;28;20250;-77
2023/04/06 07:40:50;;;;;;;8.00;5.70;;;9.40;88.30;;;;;;5096887;28;20310;-77
2023/04/06 07:43:17;;;;;;;7.95;7.03;;;9.50;88.40;;;;;;5101535;28;20231;-76
2023/04/06 07:45:44;;;;;;;7.82;6.95;;;9.50;87.80;;;;;;5109041;28;20224;-77
2023/04/06 07:48:13;;;;;;;6.20;5.60;;;9.50;85.90;;;;;;5110964;28;20227;-76
2023/04/06 07:50:42;;;;;;;5.70;5.20;;;9.60;86.50;;;;;;5108283;28;20688;-77
2023/04/06 07:53:10;;;;;;;7.50;6.20;;;9.60;84.70;;;;;;5108690;28;20230;-77
2023/04/06 07:55:39;;;;;;;9.40;5.72;;;9.70;85.00;;;;;;5099343;28;20227;-76
2023/04/06 07:58:07;;;;;;;6.22;5.70;;;9.70;83.90;;;;;;5093471;28;20266;-77
2023/04/06 08:00:34;;;;;;;7.00;5.32;;;9.70;84.00;;;;;;5093310;28;20576;-77
2023/04/06 08:03:07;;;;;;;9.00;6.43;;;9.80;84.30;;;;;;5092608;28;20223;-77
2023/04/06 08:05:34;;;;;;;7.20;5.70;;;9.80;82.40;;;;;;5092833;28;20261;-77
2023/04/06 08:08:03;;;;;;;6.43;5.60;;;9.80;82.30;;;;;;5092873;28;20223;-77
2023/04/06 08:10:30;;;;;;;5.97;5.38;;;9.80;81.50;;;;;;5091747;28;20689;-77
2023/04/06 08:12:57;;;;;;;6.03;4.70;;;9.90;82.00;;;;;;5092940;28;20537;-77
2023/04/06 08:15:25;;;;;;;6.80;6.20;;;9.90;81.50;;;;;;5092373;28;20276;-77
2023/04/06 08:17:52;;;;;;;5.93;5.20;;;10.00;80.70;;;;;;5092598;28;20633;-77
2023/04/06 08:23:02;;;;;;;5.75;5.22;;;10.10;78.90;;;;;;5092807;28;20219;-76
2023/04/06 08:25:29;;;;;;;4.97;4.57;;;10.20;78.10;;;;;;5092549;28;20243;-77
2023/04/06 08:27:59;;;;;;;7.80;4.88;;;10.30;78.40;;;;;;5092628;28;20233;-76
2023/04/06 08:30:32;;;;;;;4.65;4.25;;;10.40;77.50;;;;;;5092188;28;20226;-77
2023/04/06 08:33:06;;;;;;;6.30;4.68;;;10.50;77.40;;;;;;5092920;28;20223;-77
2023/04/06 08:35:33;;;;;;;8.45;5.28;;;10.60;75.80;;;;;;5091677;28;20230;-77
2023/04/06 08:38:00;;;;;;;5.38;4.10;;;10.60;75.40;;;;;;5092964;28;20602;-77
2023/04/06 08:40:29;;;;;;;4.78;3.92;;;10.70;73.70;;;;;;5091941;28;20227;-77
2023/04/06 08:43:01;;;;;;;5.90;4.80;;;10.70;73.20;;;;;;5092688;28;20778;-76
2023/04/06 08:45:29;;;;;;;5.30;3.70;;;10.80;73.00;;;;;;5090022;28;20310;-76
2023/04/06 08:48:01;;;;;;;7.45;4.03;;;10.80;71.60;;;;;;5092388;28;20725;-76
2023/04/06 08:50:31;;;;;;;8.73;3.70;;;10.80;70.80;;;;;;5091153;28;20231;-77
2023/04/06 08:52:58;;;;;;;3.75;3.45;;;10.80;70.70;;;;;;5092352;28;20211;-77
2023/04/06 08:55:26;;;;;;;3.85;3.05;;;10.90;70.30;;;;;;5092476;28;20242;-77
2023/04/06 08:58:00;;;;;;;3.75;3.33;;;10.90;68.50;;;;;;5091934;28;20233;-77
2023/04/06 09:00:28;;;;;;;3.33;3.03;;;10.90;68.00;;;;;;5091429;28;20223;-77
2023/04/06 09:02:57;;;;;;;3.22;2.92;;;10.80;65.10;;;;;;5091663;28;20234;-77
2023/04/06 09:05:26;;;;;;;6.65;3.22;;;10.90;66.20;;;;;;5091539;28;20249;-77
2023/04/06 09:07:53;;;;;;;3.25;2.90;;;10.90;66.20;;;;;;5092235;28;20292;-77
2023/04/06 09:10:25;;;;;;;2.92;2.72;;;10.90;65.80;;;;;;5090880;28;20610;-77
2023/04/06 09:16:01;;;;;;;3.97;2.95;;;11.10;66.10;;;;;;5054733;28;20370;-76
2023/04/06 09:18:32;;;;;;;3.20;2.90;;;11.20;65.80;;;;;;5058377;28;20224;-76
2023/04/06 09:21:03;;;;;;;4.03;3.08;;;11.30;65.80;;;;;;5095718;28;20219;-76
2023/04/06 09:23:30;;;;;;;2.80;2.58;;;11.30;63.90;;;;;;5095573;28;20587;-77
2023/04/06 09:26:08;;;;;;;3.83;2.45;;;11.30;63.30;;;;;;5095920;28;20272;-77
2023/04/06 09:28:50;;;;;;;4.05;2.95;;;11.40;62.60;;;;;;5095035;28;20231;-77
2023/04/06 09:31:22;;;;;;;2.92;2.72;;;11.40;62.20;;;;;;5095114;28;20291;-76
2023/04/06 09:33:49;;;;;;;6.57;4.28;;;11.40;62.50;;;;;;5094669;28;20219;-78
2023/04/06 09:36:18;;;;;;;2.95;2.70;;;11.40;61.70;;;;;;5094899;28;20227;-77
2023/04/06 09:38:57;;;;;;;3.00;2.65;;;11.50;62.20;;;;;;5094928;28;20554;-78
2023/04/06 09:41:29;;;;;;;2.50;2.15;;;11.60;62.90;;;;;;5094996;28;20602;-78
2023/04/06 09:44:05;;;;;;;3.58;2.67;;;11.70;62.50;;;;;;5094946;28;20251;-78
2023/04/06 09:46:35;;;;;;;3.60;3.28;;;11.80;61.00;;;;;;5094985;28;20234;-78
2023/04/06 09:49:04;;;;;;;4.32;3.70;;;11.80;59.80;;;;;;5095321;28;20677;-77
2023/04/06 09:51:32;;;;;;;6.93;2.60;;;12.00;60.30;;;;;;5094622;28;20284;-78
2023/04/06 09:54:03;;;;;;;3.88;2.25;;;11.90;59.60;;;;;;5095667;28;20282;-78
2023/04/06 09:56:47;;;;;;;2.80;1.90;;;12.00;59.20;;;;;;5097940;28;20227;-78
2023/04/06 09:59:21;;;;;;;4.38;3.03;;;12.10;59.20;;;;;;5095806;28;20253;-77
2023/04/06 10:01:52;;;;;;;2.78;2.58;;;12.00;58.60;;;;;;5096609;28;20215;-77
2023/04/06 10:04:35;;;;;;;2.90;2.60;;;12.10;59.30;;;;;;5084108;28;20240;-77
2023/04/06 10:07:04;;;;;;;2.80;2.50;;;12.10;58.60;;;;;;5095829;28;20222;-77
2023/04/06 10:12:21;;;;;;;5.03;2.85;;;12.10;57.60;;;;;;5094763;28;20228;-76
2023/04/06 10:14:50;;;;;;;2.30;2.10;;;12.20;57.70;;;;;;5095204;28;20231;-77
2023/04/06 10:17:17;;;;;;;2.55;1.90;;;12.30;58.20;;;;;;5094921;28;20235;-76
2023/04/06 10:19:51;;;;;;;4.93;2.90;;;12.40;57.30;;;;;;5093819;28;20223;-76
2023/04/06 10:22:27;;;;;;;2.00;1.80;;;12.50;57.10;;;;;;5094059;28;20238;-77
2023/04/06 10:24:54;;;;;;;6.60;1.65;;;12.60;54.80;;;;;;5093283;28;20218;-76
2023/04/06 10:27:29;;;;;;;2.35;2.03;;;12.60;52.90;;;;;;5094240;28;20246;-77
2023/04/06 10:30:03;;;;;;;5.32;1.70;;;12.70;52.40;;;;;;5094016;28;20238;-76
2023/04/06 10:32:38;;;;;;;2.45;1.88;;;12.80;53.00;;;;;;5092983;28;20565;-76
2023/04/06 10:35:10;;;;;;;1.52;1.42;;;13.00;53.00;;;;;;5083477;28;20237;-76
2023/04/06 10:37:54;;;;;;;2.30;2.13;;;13.00;51.20;;;;;;5082867;28;20223;-77
2023/04/06 10:40:24;;;;;;;2.75;2.40;;;13.00;51.30;;;;;;5093896;28;20291;-77
2023/04/06 10:42:51;;;;;;;3.22;2.92;;;13.00;50.60;;;;;;5093212;28;20310;-76
2023/04/06 10:45:24;;;;;;;4.40;2.55;;;13.00;51.10;;;;;;5093638;28;20219;-77
2023/04/06 10:47:53;;;;;;;4.55;3.53;;;13.00;52.50;;;;;;5093693;28;20235;-77
2023/04/06 10:50:24;;;;;;;3.40;3.10;;;13.10;53.10;;;;;;5094046;28;20235;-76
2023/04/06 10:53:00;;;;;;;2.97;2.30;;;13.20;53.00;;;;;;5093470;28;20219;-77
2023/04/06 10:55:39;;;;;;;2.25;1.95;;;13.20;50.30;;;;;;5093724;28;20230;-76
2023/04/06 10:58:09;;;;;;;3.25;2.50;;;13.30;50.90;;;;;;5094190;28;20322;-76
2023/04/06 11:00:45;;;;;;;1.67;1.58;;;13.30;48.90;;;;;;5083588;28;20660;-77
2023/04/06 11:03:24;;;;;;;2.20;2.10;;;13.40;48.80;;;;;;5093673;28;20250;-77
2023/04/06 11:06:06;;;;;;;4.80;1.95;;;13.30;47.10;;;;;;5093431;28;20356;-76
2023/04/06 11:08:38;;;;;;;3.60;2.85;;;13.40;47.80;;;;;;5093301;28;20238;-77
2023/04/06 11:11:07;;;;;;;3.25;2.95;;;13.40;48.50;;;;;;5092715;28;20223;-76
2023/04/06 11:13:42;;;;;;;2.45;2.25;;;13.50;49.00;;;;;;5093243;28;20219;-76
2023/04/06 11:16:15;;;;;;;3.38;2.20;;;13.50;48.70;;;;;;5093506;28;20280;-76
2023/04/06 11:18:54;;;;;;;2.50;2.30;;;13.50;47.70;;;;;;5092924;28;20660;-77
2023/04/06 11:21:36;;;;;;;2.63;2.40;;;13.40;47.30;;;;;;5092032;28;20230;-76
2023/04/06 11:24:11;;;;;;;5.88;2.85;;;13.40;47.60;;;;;;5093912;28;20219;-77
2023/04/06 11:26:40;;;;;;;3.03;2.70;;;13.30;48.00;;;;;;5092755;28;20317;-78
2023/04/06 11:29:09;;;;;;;2.15;1.85;;;13.40;48.50;;;;;;5093136;28;20223;-76
2023/04/06 11:31:42;;;;;;;2.67;1.98;;;13.50;48.90;;;;;;5091619;28;20219;-76
2023/04/06 11:34:14;;;;;;;2.47;2.28;;;13.50;49.20;;;;;;5093384;28;20596;-76
2023/04/06 11:36:47;;;;;;;2.17;2.08;;;13.50;47.40;;;;;;5092544;28;20355;-76
2023/04/06 11:39:14;;;;;;;2.50;2.30;;;13.50;47.40;;;;;;5092873;28;20227;-77
2023/04/06 11:41:42;;;;;;;2.28;2.05;;;13.50;47.20;;;;;;5092197;28;20845;-78
2023/04/06 11:44:10;;;;;;;3.05;2.35;;;13.50;47.30;;;;;;5082058;28;20231;-78
2023/04/06 11:46:38;;;;;;;1.85;1.67;;;13.60;47.40;;;;;;5091531;28;20227;-78
2023/04/06 11:49:09;;;;;;;2.20;2.00;;;13.60;48.10;;;;;;5092740;28;20234;-76
2023/04/06 11:51:37;;;;;;;3.72;2.40;;;13.70;48.70;;;;;;5091227;28;20472;-78
2023/04/06 11:54:04;;;;;;;5.43;3.90;;;13.70;48.80;;;;;;5092915;28;20250;-77
2023/04/06 11:56:36;;;;;;;9.80;6.70;;;13.80;49.10;;;;;;5091884;28;20470;-77
2023/04/06 11:59:09;;;;;;;3.13;2.83;;;13.80;49.00;;;;;;5092979;28;20250;-77
2023/04/06 12:01:49;;;;;;;2.83;2.10;;;13.80;48.50;;;;;;5081767;28;20476;-78
2023/04/06 12:04:17;;;;;;;5.13;3.15;;;13.70;47.90;;;;;;5093179;28;20680;-77
2023/04/06 12:06:47;;;;;;;2.83;2.03;;;13.60;46.70;;;;;;5093239;28;20237;-77
2023/04/06 12:09:15;;;;;;;2.65;2.45;;;13.60;47.10;;;;;;5097624;28;20525;-78
2023/04/06 12:11:43;;;;;;;3.53;2.85;;;13.60;46.80;;;;;;5093922;28;20277;-78
2023/04/06 12:14:14;;;;;;;3.10;2.80;;;13.40;46.90;;;;;;5083637;28;20227;-77
2023/04/06 12:16:41;;;;;;;2.10;1.90;;;13.40;47.40;;;;;;5092563;28;20229;-78
2023/04/06 12:19:09;;;;;;;3.22;2.67;;;13.40;47.50;;;;;;5093052;28;20234;-77
2023/04/06 12:21:48;;;;;;;2.78;2.58;;;13.50;47.40;;;;;;5083729;28;20229;-77
2023/04/06 12:24:16;;;;;;;3.53;2.72;;;13.40;47.70;;;;;;5092278;28;20231;-77
2023/04/06 12:26:44;;;;;;;2.00;1.83;;;13.40;47.50;;;;;;5094235;28;20765;-78
2023/04/06 12:29:13;;;;;;;4.03;3.15;;;13.50;47.90;;;;;;5095813;28;20227;-77
2023/04/06 12:31:42;;;;;;;4.10;2.07;;;13.50;48.00;;;;;;5097383;28;20246;-78
2023/04/06 12:34:10;;;;;;;3.38;2.00;;;13.50;48.00;;;;;;5092728;28;20969;-78
2023/04/06 12:36:39;;;;;;;3.42;2.78;;;13.50;47.80;;;;;;5092446;28;20314;-77
2023/04/06 12:39:07;;;;;;;3.53;2.65;;;13.40;47.10;;;;;;5080690;28;20518;-77
2023/04/06 12:41:34;;;;;;;5.97;2.92;;;13.40;47.00;;;;;;5081586;28;20219;-78
2023/04/06 12:44:01;;;;;;;2.20;2.03;;;13.30;47.30;;;;;;5092276;28;20223;-77
2023/04/06 12:46:30;;;;;;;2.65;2.45;;;13.30;47.40;;;;;;5092772;28;20234;-78
2023/04/06 12:48:58;;;;;;;2.70;2.50;;;13.40;47.40;;;;;;5094528;28;20306;-76
2023/04/06 12:51:26;;;;;;;2.47;1.95;;;13.30;47.00;;;;;;5098140;28;20326;-78
2023/04/06 12:53:55;;;;;;;2.70;2.50;;;13.40;47.30;;;;;;5096590;28;20302;-77
2023/04/06 12:56:22;;;;;;;3.17;2.30;;;13.40;47.10;;;;;;5098097;28;20215;-78
2023/04/06 12:58:50;;;;;;;2.30;2.10;;;13.50;46.90;;;;;;5083693;28;20284;-77
2023/04/06 13:01:17;;;;;;;2.45;2.20;;;13.50;46.70;;;;;;5094594;28;20298;-77
2023/04/06 13:03:44;;;;;;;2.33;2.13;;;13.60;46.80;;;;;;5080193;28;20650;-77
2023/04/06 13:06:12;;;;;;;3.20;2.50;;;13.60;46.70;;;;;;5075518;28;20474;-76
2023/04/06 13:08:40;;;;;;;3.70;2.50;;;13.70;46.80;;;;;;5077966;28;20228;-76
2023/04/06 13:11:09;;;;;;;2.53;2.30;;;13.70;46.80;;;;;;5074678;28;20466;-77
2023/04/06 13:13:36;;;;;;;3.80;3.17;;;13.80;46.80;;;;;;5091423;28;20966;-76
2023/04/06 13:16:05;;;;;;;2.53;2.33;;;13.80;46.90;;;;;;5075077;28;20470;-77
2023/04/06 13:18:33;;;;;;;3.97;2.25;;;13.80;47.50;;;;;;5074473;28;20216;-76